Flight Track Log - Related Links

Times and Time Zones

All times are in EDT time to prevent confusion due to time zone crossing. See the JZA7940 flight status page for this flight to view local times or setup timezone preferences in your user account.

Time Position Orientation Groundspeed Altitude Reporting Facility
EDT Latitude Longitude Course Direction KTS MPH feet Rate Location/Type
Tue 08:15:29 PM 42.9500 -87.8833 90° East 152 175 1,700  Level KMKE
Tue 08:16:54 PM 42.9883 -87.8175 51° Northeast 227 261 5,200 2,612 Climbing Chicago Center
Tue 08:17:56 PM 42.9928 -87.7125 87° East 269 310 8,100 2,758 Climbing Chicago Center
Tue 08:18:58 PM 42.9961 -87.5928 88° East 305 351 10,900 2,710 Climbing Chicago Center
Tue 08:20:00 PM 43.0442 -87.1003 90° East  Level Estimated
Tue 08:20:00 PM 43.0006 -87.4642 87° East 331 381 13,700  Level Chicago Center
Tue 08:21:02 PM 43.0086 -87.3400 85° East 352 405 15,900 2,371 Climbing Chicago Center
Tue 08:22:04 PM 43.0317 -87.1678 80° East 385 443 18,600 2,341 Climbing Chicago Center
Tue 08:23:05 PM 43.0508 -87.0222 80° East 391 450 20,700 1,805 Climbing Chicago Center
Tue 08:24:07 PM 43.0689 -86.8683 81° East 407 468 22,300 1,548 Climbing Chicago Center
Tue 08:25:09 PM 43.0897 -86.7089 80° East 423 487 23,900 1,548 Climbing Chicago Center
Tue 08:26:11 PM 43.1089 -86.5461 81° East 432 497 25,500 1,452 Climbing Chicago Center
Tue 08:27:13 PM 43.1297 -86.3781 80° East 445 512 26,900 1,355 Climbing Chicago Center
Tue 08:28:15 PM 43.1508 -86.2053 80° East 453 521 28,300 1,258 Climbing Chicago Center
Tue 08:29:17 PM 43.1711 -86.0275 81° East 460 529 29,500 1,220 Climbing Chicago Center
Tue 08:30:18 PM 43.1814 -85.8089 86° East 467 537 30,800 1,024 Climbing Chicago Center
Tue 08:31:20 PM 43.1903 -85.6283 86° East 471 542 31,600 871 Climbing Chicago Center
Tue 08:32:22 PM 43.1992 -85.4456 86° East 479 551 32,600 677 Climbing Chicago Center
Tue 08:33:24 PM 43.2075 -85.2642 86° East 477 549 33,000 194 Climbing Chicago Center
Tue 08:34:26 PM 43.2161 -85.0811 86° East 482 555 33,000  Level Chicago Center
Tue 08:35:28 PM 43.2239 -84.8997 87° East 478 550 33,000  Level Chicago Center
Tue 08:36:26 PM 43.2281 -84.7178 88° East 473 544 33,000  Level Cleveland Center
Tue 08:37:26 PM 43.2344 -84.5386 87° East 473 544 33,000 -50 Level Cleveland Center
Tue 08:38:26 PM 43.2383 -84.3594 88° East 473 544 32,900 -550 Descending Cleveland Center
Tue 08:39:26 PM 43.2439 -84.1831 87° East 473 544 31,900 -1,000 Descending Cleveland Center
Tue 08:40:26 PM 43.2433 -84.0006 90° East 473 544 30,900 -1,000 Descending Cleveland Center
Tue 08:41:26 PM 43.2461 -83.8267 89° East 473 544 29,900 -950 Descending Cleveland Center
Tue 08:42:26 PM 43.2508 -83.6531 88° East 461 531 29,000 -450 Descending Cleveland Center
Tue 08:43:26 PM 43.2511 -83.4819 90° East 455 524 29,000  Level Cleveland Center
Tue 08:44:26 PM 43.2533 -83.3053 89° East 455 524 29,000  Level Cleveland Center
Tue 08:45:26 PM 43.2533 -83.1258 90° East 461 531 29,000  Level Cleveland Center
Tue 08:46:27 PM 43.2531 -82.9406 90° East 466 536 29,000  Level Cleveland Center
Tue 08:47:26 PM 43.2547 -82.7494 89° East 484 557 29,000  Level Cleveland Center
Tue 08:48:26 PM 43.2686 -82.5561 84° East 497 572 29,000  Level Cleveland Center
Tue 08:49:26 PM 43.2822 -82.3569 85° East 507 583 29,000  Level Cleveland Center
Tue 08:50:25 PM 43.2833 -82.1500 90° East 510 587 29,000 -403 Level Toronto Center
Tue 08:51:25 PM 43.3000 -81.9500 83° East 480 552 28,200 -1,350 Descending Toronto Center
Tue 08:52:25 PM 43.3167 -81.7833 82° East 460 529 26,300 -2,000 Descending Toronto Center
Tue 08:53:25 PM 43.3333 -81.6000 83° East 450 518 24,200 -1,750 Descending Toronto Center
Tue 08:54:25 PM 43.3333 -81.4500 90° East 440 506 22,800 -1,350 Descending Toronto Center
Tue 08:55:25 PM 43.3500 -81.3000 81° East 420 483 21,500 -1,400 Descending Toronto Center
Tue 08:56:25 PM 43.3667 -81.1167 83° East 420 483 20,000 -1,450 Descending Toronto Center
Tue 08:57:25 PM 43.3833 -80.9833 80° East 400 460 18,600 -1,750 Descending Toronto Center
Tue 08:58:25 PM 43.3833 -80.8333 90° East 390 449 16,500 -2,050 Descending Toronto Center
Tue 08:59:25 PM 43.4167 -80.6833 73° East 380 437 14,500 -2,050 Descending Toronto Center
Tue 09:00:25 PM 43.4333 -80.5667 79° East 360 414 12,400 -2,050 Descending Toronto Center
Tue 09:01:25 PM 43.4500 -80.4333 80° East 340 391 10,400 -1,650 Descending Toronto Center
Tue 09:02:25 PM 43.4500 -80.3167 90° East 310 357 9,100 -1,400 Descending Toronto Center
Tue 09:03:25 PM 43.4833 -80.2000 68° East 280 322 7,600 -1,150 Descending Toronto Center
Tue 09:04:25 PM 43.4833 -80.1167 90° East 270 311 6,800 -950 Descending Toronto Center
Tue 09:05:25 PM 43.4833 -80.0167 90° East 250 288 5,700 -1,050 Descending Toronto Center
Tue 09:06:25 PM 43.4833 -79.9333 90° East 250 288 4,700 -1,000 Descending Toronto Center
Tue 09:07:25 PM 43.5000 -79.8333 77° East 230 265 3,700 -850 Descending Toronto Center
Tue 09:08:25 PM 43.5333 -79.7667 55° Northeast 230 265 3,000 -400 Descending Toronto Center
Tue 09:09:25 PM 43.5667 -79.7167 47° Northeast 200 230 2,900 -100 Descending Toronto Center

Login

Don't have an account? Register now (free) for customized features, flight alerts, and more!